sensor_id;sensor_type;location;lat;lon;timestamp;P1;durP1;ratioP1;P2;durP2;ratioP2
6023;SDS011;3040;42.654;23.296;2024-03-23T00:54:02;8.70;;;7.77;;
6023;SDS011;3040;42.654;23.296;2024-03-23T00:56:29;8.03;;;7.43;;
6023;SDS011;3040;42.654;23.296;2024-03-23T00:58:55;9.10;;;8.20;;
6023;SDS011;3040;42.654;23.296;2024-03-23T01:01:22;8.17;;;7.43;;
6023;SDS011;3040;42.654;23.296;2024-03-23T01:03:47;8.47;;;7.53;;
6023;SDS011;3040;42.654;23.296;2024-03-23T01:06:14;14.97;;;11.87;;
6023;SDS011;3040;42.654;23.296;2024-03-23T01:08:41;7.67;;;6.90;;
6023;SDS011;3040;42.654;23.296;2024-03-23T01:11:08;7.40;;;6.63;;
6023;SDS011;3040;42.654;23.296;2024-03-23T01:13:34;6.57;;;6.00;;
6023;SDS011;3040;42.654;23.296;2024-03-23T01:16:01;5.70;;;5.40;;
6023;SDS011;3040;42.654;23.296;2024-03-23T01:18:26;6.57;;;6.10;;
6023;SDS011;3040;42.654;23.296;2024-03-23T01:20:54;5.87;;;4.97;;
6023;SDS011;3040;42.654;23.296;2024-03-23T01:23:19;5.00;;;4.60;;
6023;SDS011;3040;42.654;23.296;2024-03-23T01:25:52;6.10;;;5.50;;
6023;SDS011;3040;42.654;23.296;2024-03-23T01:28:18;6.40;;;5.90;;
6023;SDS011;3040;42.654;23.296;2024-03-23T01:30:45;6.53;;;6.03;;
6023;SDS011;3040;42.654;23.296;2024-03-23T01:33:11;6.77;;;6.37;;
6023;SDS011;3040;42.654;23.296;2024-03-23T01:35:37;12.30;;;10.13;;
6023;SDS011;3040;42.654;23.296;2024-03-23T01:38:03;15.23;;;10.67;;
6023;SDS011;3040;42.654;23.296;2024-03-23T01:40:31;20.30;;;14.50;;
6023;SDS011;3040;42.654;23.296;2024-03-23T01:43:00;6.73;;;6.03;;
6023;SDS011;3040;42.654;23.296;2024-03-23T01:45:30;6.97;;;6.20;;
6023;SDS011;3040;42.654;23.296;2024-03-23T01:47:56;6.23;;;5.73;;
6023;SDS011;3040;42.654;23.296;2024-03-23T01:50:24;6.37;;;5.77;;
6023;SDS011;3040;42.654;23.296;2024-03-23T01:52:50;6.33;;;5.93;;
6023;SDS011;3040;42.654;23.296;2024-03-23T01:55:17;4.97;;;4.67;;
6023;SDS011;3040;42.654;23.296;2024-03-23T01:57:43;4.30;;;4.00;;
6023;SDS011;3040;42.654;23.296;2024-03-23T02:00:12;7.30;;;6.30;;
6023;SDS011;3040;42.654;23.296;2024-03-23T02:02:41;5.53;;;5.03;;
6023;SDS011;3040;42.654;23.296;2024-03-23T02:05:09;4.57;;;4.13;;
6023;SDS011;3040;42.654;23.296;2024-03-23T02:07:35;5.47;;;5.13;;
6023;SDS011;3040;42.654;23.296;2024-03-23T02:10:02;6.30;;;5.70;;
6023;SDS011;3040;42.654;23.296;2024-03-23T02:12:28;5.10;;;4.77;;
6023;SDS011;3040;42.654;23.296;2024-03-23T02:14:54;5.40;;;4.70;;
6023;SDS011;3040;42.654;23.296;2024-03-23T02:17:21;7.00;;;5.00;;
6023;SDS011;3040;42.654;23.296;2024-03-23T02:19:48;4.80;;;4.40;;
6023;SDS011;3040;42.654;23.296;2024-03-23T02:22:14;5.63;;;5.23;;
6023;SDS011;3040;42.654;23.296;2024-03-23T02:24:42;7.60;;;6.90;;
6023;SDS011;3040;42.654;23.296;2024-03-23T02:27:08;5.03;;;4.73;;
6023;SDS011;3040;42.654;23.296;2024-03-23T02:29:35;5.40;;;5.07;;
6023;SDS011;3040;42.654;23.296;2024-03-23T02:32:00;5.83;;;5.33;;
6023;SDS011;3040;42.654;23.296;2024-03-23T02:34:27;6.03;;;5.53;;
6023;SDS011;3040;42.654;23.296;2024-03-23T02:36:53;4.97;;;4.67;;
6023;SDS011;3040;42.654;23.296;2024-03-23T02:39:20;8.70;;;4.30;;
6023;SDS011;3040;42.654;23.296;2024-03-23T02:41:47;3.17;;;3.07;;
6023;SDS011;3040;42.654;23.296;2024-03-23T02:44:13;8.83;;;4.37;;
6023;SDS011;3040;42.654;23.296;2024-03-23T02:46:39;4.17;;;3.97;;
6023;SDS011;3040;42.654;23.296;2024-03-23T02:49:06;4.00;;;3.80;;
6023;SDS011;3040;42.654;23.296;2024-03-23T02:51:33;4.30;;;4.10;;
6023;SDS011;3040;42.654;23.296;2024-03-23T02:53:59;3.83;;;3.60;;
6023;SDS011;3040;42.654;23.296;2024-03-23T02:56:25;5.57;;;4.47;;
6023;SDS011;3040;42.654;23.296;2024-03-23T02:58:54;4.70;;;4.40;;
6023;SDS011;3040;42.654;23.296;2024-03-23T03:01:19;5.43;;;5.10;;
6023;SDS011;3040;42.654;23.296;2024-03-23T03:03:46;6.17;;;5.67;;
6023;SDS011;3040;42.654;23.296;2024-03-23T03:06:12;5.00;;;4.53;;
6023;SDS011;3040;42.654;23.296;2024-03-23T03:08:49;6.80;;;5.30;;
6023;SDS011;3040;42.654;23.296;2024-03-23T03:11:15;5.63;;;4.87;;
6023;SDS011;3040;42.654;23.296;2024-03-23T03:13:41;8.87;;;5.00;;
6023;SDS011;3040;42.654;23.296;2024-03-23T03:16:09;7.83;;;4.93;;
6023;SDS011;3040;42.654;23.296;2024-03-23T03:18:36;16.10;;;4.90;;
6023;SDS011;3040;42.654;23.296;2024-03-23T03:21:02;6.43;;;5.80;;
6023;SDS011;3040;42.654;23.296;2024-03-23T03:23:30;7.90;;;6.00;;
6023;SDS011;3040;42.654;23.296;2024-03-23T03:25:56;16.00;;;8.53;;
6023;SDS011;3040;42.654;23.296;2024-03-23T03:28:23;10.87;;;7.70;;
6023;SDS011;3040;42.654;23.296;2024-03-23T03:30:49;8.50;;;6.90;;
6023;SDS011;3040;42.654;23.296;2024-03-23T03:33:17;9.73;;;8.27;;
6023;SDS011;3040;42.654;23.296;2024-03-23T03:35:43;15.03;;;10.33;;
6023;SDS011;3040;42.654;23.296;2024-03-23T03:38:10;15.23;;;9.93;;
6023;SDS011;3040;42.654;23.296;2024-03-23T03:40:36;11.40;;;9.57;;
6023;SDS011;3040;42.654;23.296;2024-03-23T03:43:03;14.90;;;11.33;;
6023;SDS011;3040;42.654;23.296;2024-03-23T03:45:29;11.70;;;10.70;;
6023;SDS011;3040;42.654;23.296;2024-03-23T03:47:55;16.30;;;9.80;;
6023;SDS011;3040;42.654;23.296;2024-03-23T03:50:23;13.20;;;10.17;;
6023;SDS011;3040;42.654;23.296;2024-03-23T03:52:50;10.53;;;8.30;;
6023;SDS011;3040;42.654;23.296;2024-03-23T03:55:16;10.57;;;9.57;;
6023;SDS011;3040;42.654;23.296;2024-03-23T03:57:43;11.10;;;9.33;;
6023;SDS011;3040;42.654;23.296;2024-03-23T04:00:09;11.63;;;7.90;;
6023;SDS011;3040;42.654;23.296;2024-03-23T04:02:37;10.13;;;7.80;;
6023;SDS011;3040;42.654;23.296;2024-03-23T04:05:03;8.47;;;7.77;;
6023;SDS011;3040;42.654;23.296;2024-03-23T04:07:31;13.50;;;8.27;;
6023;SDS011;3040;42.654;23.296;2024-03-23T04:09:57;11.70;;;9.67;;
6023;SDS011;3040;42.654;23.296;2024-03-23T04:12:23;11.57;;;9.33;;
6023;SDS011;3040;42.654;23.296;2024-03-23T04:14:49;14.67;;;11.60;;
6023;SDS011;3040;42.654;23.296;2024-03-23T04:17:16;28.57;;;15.70;;
6023;SDS011;3040;42.654;23.296;2024-03-23T04:19:42;23.40;;;15.57;;
6023;SDS011;3040;42.654;23.296;2024-03-23T04:22:08;27.63;;;16.97;;
6023;SDS011;3040;42.654;23.296;2024-03-23T04:24:36;20.83;;;14.97;;
6023;SDS011;3040;42.654;23.296;2024-03-23T04:27:02;20.23;;;14.90;;
6023;SDS011;3040;42.654;23.296;2024-03-23T04:29:28;21.43;;;14.50;;
6023;SDS011;3040;42.654;23.296;2024-03-23T04:31:55;12.27;;;10.07;;
6023;SDS011;3040;42.654;23.296;2024-03-23T04:34:21;19.20;;;13.33;;
6023;SDS011;3040;42.654;23.296;2024-03-23T04:36:49;13.47;;;10.33;;
6023;SDS011;3040;42.654;23.296;2024-03-23T04:39:15;12.37;;;10.63;;
6023;SDS011;3040;42.654;23.296;2024-03-23T04:41:43;11.33;;;8.63;;
6023;SDS011;3040;42.654;23.296;2024-03-23T04:44:09;15.77;;;10.27;;
6023;SDS011;3040;42.654;23.296;2024-03-23T04:46:36;13.37;;;11.30;;
6023;SDS011;3040;42.654;23.296;2024-03-23T04:49:03;19.23;;;10.37;;
6023;SDS011;3040;42.654;23.296;2024-03-23T04:51:34;12.17;;;9.27;;
6023;SDS011;3040;42.654;23.296;2024-03-23T04:54:02;16.23;;;9.00;;
6023;SDS011;3040;42.654;23.296;2024-03-23T04:56:29;15.10;;;9.93;;
6023;SDS011;3040;42.654;23.296;2024-03-23T04:58:58;13.47;;;9.57;;
6023;SDS011;3040;42.654;23.296;2024-03-23T05:01:26;14.27;;;8.40;;
6023;SDS011;3040;42.654;23.296;2024-03-23T05:03:53;10.47;;;9.23;;
6023;SDS011;3040;42.654;23.296;2024-03-23T05:06:19;14.57;;;10.20;;
6023;SDS011;3040;42.654;23.296;2024-03-23T05:08:45;28.43;;;11.57;;
6023;SDS011;3040;42.654;23.296;2024-03-23T05:11:11;44.27;;;21.87;;
6023;SDS011;3040;42.654;23.296;2024-03-23T05:13:38;42.93;;;22.97;;
6023;SDS011;3040;42.654;23.296;2024-03-23T05:16:05;44.67;;;24.03;;
6023;SDS011;3040;42.654;23.296;2024-03-23T05:18:32;26.50;;;15.90;;
6023;SDS011;3040;42.654;23.296;2024-03-23T05:20:58;22.60;;;12.63;;
6023;SDS011;3040;42.654;23.296;2024-03-23T05:23:25;13.43;;;10.57;;
6023;SDS011;3040;42.654;23.296;2024-03-23T05:25:51;11.50;;;9.77;;
6023;SDS011;3040;42.654;23.296;2024-03-23T05:28:18;17.70;;;10.90;;
6023;SDS011;3040;42.654;23.296;2024-03-23T05:30:44;14.47;;;10.57;;
6023;SDS011;3040;42.654;23.296;2024-03-23T05:33:18;15.63;;;10.63;;
6023;SDS011;3040;42.654;23.296;2024-03-23T05:35:43;15.53;;;11.33;;
6023;SDS011;3040;42.654;23.296;2024-03-23T05:38:10;11.50;;;10.40;;
6023;SDS011;3040;42.654;23.296;2024-03-23T05:40:36;13.23;;;10.83;;
6023;SDS011;3040;42.654;23.296;2024-03-23T05:43:05;15.47;;;11.37;;
6023;SDS011;3040;42.654;23.296;2024-03-23T05:45:31;14.33;;;12.07;;
6023;SDS011;3040;42.654;23.296;2024-03-23T05:47:57;11.57;;;10.43;;
6023;SDS011;3040;42.654;23.296;2024-03-23T05:50:25;16.17;;;11.23;;
6023;SDS011;3040;42.654;23.296;2024-03-23T05:52:51;12.80;;;11.50;;
6023;SDS011;3040;42.654;23.296;2024-03-23T05:55:17;12.87;;;11.60;;
6023;SDS011;3040;42.654;23.296;2024-03-23T05:57:44;13.07;;;11.63;;
6023;SDS011;3040;42.654;23.296;2024-03-23T06:00:10;14.20;;;12.10;;
6023;SDS011;3040;42.654;23.296;2024-03-23T06:02:42;17.03;;;12.13;;
6023;SDS011;3040;42.654;23.296;2024-03-23T06:05:09;18.60;;;15.07;;
6023;SDS011;3040;42.654;23.296;2024-03-23T06:07:38;15.80;;;13.43;;
6023;SDS011;3040;42.654;23.296;2024-03-23T06:10:04;17.83;;;11.67;;
6023;SDS011;3040;42.654;23.296;2024-03-23T06:12:31;20.87;;;12.37;;
6023;SDS011;3040;42.654;23.296;2024-03-23T06:14:57;20.77;;;14.30;;
6023;SDS011;3040;42.654;23.296;2024-03-23T06:17:24;22.10;;;13.60;;
6023;SDS011;3040;42.654;23.296;2024-03-23T06:19:50;26.17;;;13.57;;
6023;SDS011;3040;42.654;23.296;2024-03-23T06:22:16;18.37;;;13.67;;
6023;SDS011;3040;42.654;23.296;2024-03-23T06:24:43;22.80;;;14.57;;
6023;SDS011;3040;42.654;23.296;2024-03-23T06:27:10;17.37;;;13.40;;
6023;SDS011;3040;42.654;23.296;2024-03-23T06:29:36;19.57;;;13.87;;
6023;SDS011;3040;42.654;23.296;2024-03-23T06:32:03;19.27;;;15.33;;
6023;SDS011;3040;42.654;23.296;2024-03-23T06:34:29;19.03;;;13.53;;
6023;SDS011;3040;42.654;23.296;2024-03-23T06:36:56;29.80;;;15.10;;
6023;SDS011;3040;42.654;23.296;2024-03-23T06:39:21;21.27;;;13.83;;
6023;SDS011;3040;42.654;23.296;2024-03-23T06:41:52;19.23;;;13.03;;
6023;SDS011;3040;42.654;23.296;2024-03-23T06:44:19;29.73;;;14.37;;
6023;SDS011;3040;42.654;23.296;2024-03-23T06:46:46;18.40;;;14.33;;
6023;SDS011;3040;42.654;23.296;2024-03-23T06:49:13;16.13;;;13.27;;
6023;SDS011;3040;42.654;23.296;2024-03-23T06:51:40;21.00;;;13.03;;
6023;SDS011;3040;42.654;23.296;2024-03-23T06:54:06;14.30;;;12.50;;
6023;SDS011;3040;42.654;23.296;2024-03-23T06:56:33;19.07;;;12.57;;
6023;SDS011;3040;42.654;23.296;2024-03-23T06:59:00;14.13;;;12.50;;
6023;SDS011;3040;42.654;23.296;2024-03-23T07:01:27;25.60;;;12.57;;
6023;SDS011;3040;42.654;23.296;2024-03-23T07:03:54;14.97;;;11.67;;
6023;SDS011;3040;42.654;23.296;2024-03-23T07:06:21;19.50;;;12.37;;
6023;SDS011;3040;42.654;23.296;2024-03-23T07:08:47;14.30;;;11.83;;
6023;SDS011;3040;42.654;23.296;2024-03-23T07:11:18;12.67;;;11.37;;
6023;SDS011;3040;42.654;23.296;2024-03-23T07:13:44;12.23;;;11.07;;
6023;SDS011;3040;42.654;23.296;2024-03-23T07:16:12;11.93;;;10.80;;
6023;SDS011;3040;42.654;23.296;2024-03-23T07:18:38;14.70;;;11.83;;
6023;SDS011;3040;42.654;23.296;2024-03-23T07:21:05;12.43;;;11.17;;
6023;SDS011;3040;42.654;23.296;2024-03-23T07:23:32;17.27;;;12.50;;
6023;SDS011;3040;42.654;23.296;2024-03-23T07:25:59;15.70;;;11.83;;
6023;SDS011;3040;42.654;23.296;2024-03-23T07:28:25;16.43;;;12.37;;
6023;SDS011;3040;42.654;23.296;2024-03-23T07:31:03;16.30;;;11.27;;
6023;SDS011;3040;42.654;23.296;2024-03-23T07:33:31;15.50;;;11.00;;
6023;SDS011;3040;42.654;23.296;2024-03-23T07:35:58;17.00;;;11.77;;
6023;SDS011;3040;42.654;23.296;2024-03-23T07:38:26;13.60;;;11.27;;
6023;SDS011;3040;42.654;23.296;2024-03-23T07:41:02;15.13;;;10.97;;
6023;SDS011;3040;42.654;23.296;2024-03-23T07:43:28;16.53;;;11.33;;
6023;SDS011;3040;42.654;23.296;2024-03-23T07:45:55;14.40;;;11.07;;
6023;SDS011;3040;42.654;23.296;2024-03-23T07:48:21;15.77;;;11.20;;
6023;SDS011;3040;42.654;23.296;2024-03-23T07:50:57;17.27;;;12.40;;
6023;SDS011;3040;42.654;23.296;2024-03-23T07:53:23;25.47;;;11.80;;
6023;SDS011;3040;42.654;23.296;2024-03-23T07:55:52;19.43;;;12.13;;
6023;SDS011;3040;42.654;23.296;2024-03-23T07:58:19;12.60;;;11.50;;
6023;SDS011;3040;42.654;23.296;2024-03-23T08:00:46;12.53;;;10.73;;
6023;SDS011;3040;42.654;23.296;2024-03-23T08:03:13;11.23;;;10.33;;
6023;SDS011;3040;42.654;23.296;2024-03-23T08:05:39;17.13;;;10.03;;
6023;SDS011;3040;42.654;23.296;2024-03-23T08:08:07;14.97;;;12.43;;
6023;SDS011;3040;42.654;23.296;2024-03-23T08:10:33;25.13;;;12.67;;
6023;SDS011;3040;42.654;23.296;2024-03-23T08:13:00;17.37;;;12.47;;
6023;SDS011;3040;42.654;23.296;2024-03-23T08:15:25;17.67;;;12.20;;
6023;SDS011;3040;42.654;23.296;2024-03-23T08:17:52;17.70;;;11.73;;
6023;SDS011;3040;42.654;23.296;2024-03-23T08:20:18;17.47;;;12.27;;
6023;SDS011;3040;42.654;23.296;2024-03-23T08:22:45;13.03;;;11.60;;
6023;SDS011;3040;42.654;23.296;2024-03-23T08:25:12;14.47;;;11.50;;
6023;SDS011;3040;42.654;23.296;2024-03-23T08:27:38;13.57;;;12.27;;
6023;SDS011;3040;42.654;23.296;2024-03-23T08:30:05;14.40;;;12.90;;
6023;SDS011;3040;42.654;23.296;2024-03-23T08:32:32;23.83;;;12.73;;
6023;SDS011;3040;42.654;23.296;2024-03-23T08:34:58;20.73;;;12.17;;
6023;SDS011;3040;42.654;23.296;2024-03-23T08:37:24;21.77;;;12.73;;
6023;SDS011;3040;42.654;23.296;2024-03-23T08:39:50;16.90;;;11.43;;
6023;SDS011;3040;42.654;23.296;2024-03-23T08:42:19;13.20;;;12.07;;
6023;SDS011;3040;42.654;23.296;2024-03-23T08:44:46;16.90;;;11.57;;
6023;SDS011;3040;42.654;23.296;2024-03-23T08:47:14;15.27;;;12.67;;
6023;SDS011;3040;42.654;23.296;2024-03-23T08:49:40;15.73;;;11.43;;
6023;SDS011;3040;42.654;23.296;2024-03-23T08:52:07;14.23;;;11.47;;
6023;SDS011;3040;42.654;23.296;2024-03-23T08:54:33;11.87;;;10.67;;
6023;SDS011;3040;42.654;23.296;2024-03-23T08:57:00;11.70;;;9.77;;
6023;SDS011;3040;42.654;23.296;2024-03-23T08:59:27;16.17;;;11.87;;
6023;SDS011;3040;42.654;23.296;2024-03-23T09:01:54;13.70;;;12.33;;
6023;SDS011;3040;42.654;23.296;2024-03-23T09:04:19;11.87;;;10.77;;
6023;SDS011;3040;42.654;23.296;2024-03-23T09:06:47;18.37;;;12.03;;
6023;SDS011;3040;42.654;23.296;2024-03-23T09:09:12;17.70;;;12.20;;
6023;SDS011;3040;42.654;23.296;2024-03-23T09:11:39;20.27;;;11.83;;
6023;SDS011;3040;42.654;23.296;2024-03-23T09:14:05;17.57;;;10.93;;
6023;SDS011;3040;42.654;23.296;2024-03-23T09:16:33;13.37;;;10.77;;
6023;SDS011;3040;42.654;23.296;2024-03-23T09:18:59;12.87;;;11.70;;
6023;SDS011;3040;42.654;23.296;2024-03-23T09:21:25;15.27;;;11.27;;
6023;SDS011;3040;42.654;23.296;2024-03-23T09:23:51;18.07;;;11.03;;
6023;SDS011;3040;42.654;23.296;2024-03-23T09:26:18;13.87;;;11.83;;
6023;SDS011;3040;42.654;23.296;2024-03-23T09:28:44;12.23;;;11.13;;
6023;SDS011;3040;42.654;23.296;2024-03-23T09:31:10;13.27;;;11.47;;
6023;SDS011;3040;42.654;23.296;2024-03-23T09:33:40;17.97;;;12.00;;
6023;SDS011;3040;42.654;23.296;2024-03-23T09:36:08;17.00;;;11.30;;
6023;SDS011;3040;42.654;23.296;2024-03-23T09:38:34;15.80;;;11.33;;
6023;SDS011;3040;42.654;23.296;2024-03-23T09:41:06;15.00;;;11.27;;
6023;SDS011;3040;42.654;23.296;2024-03-23T09:43:32;14.37;;;11.70;;
6023;SDS011;3040;42.654;23.296;2024-03-23T09:45:59;14.93;;;12.10;;
6023;SDS011;3040;42.654;23.296;2024-03-23T09:48:26;13.47;;;11.30;;
6023;SDS011;3040;42.654;23.296;2024-03-23T09:50:54;12.80;;;11.70;;
6023;SDS011;3040;42.654;23.296;2024-03-23T09:53:20;13.00;;;11.83;;
6023;SDS011;3040;42.654;23.296;2024-03-23T09:55:48;20.70;;;13.10;;
6023;SDS011;3040;42.654;23.296;2024-03-23T09:58:15;15.80;;;11.77;;
6023;SDS011;3040;42.654;23.296;2024-03-23T10:00:43;16.50;;;11.17;;
6023;SDS011;3040;42.654;23.296;2024-03-23T10:03:09;11.57;;;10.17;;
6023;SDS011;3040;42.654;23.296;2024-03-23T10:05:36;11.37;;;10.47;;
6023;SDS011;3040;42.654;23.296;2024-03-23T10:08:04;11.97;;;10.97;;
6023;SDS011;3040;42.654;23.296;2024-03-23T10:10:44;12.07;;;10.87;;
6023;SDS011;3040;42.654;23.296;2024-03-23T10:13:11;14.83;;;10.33;;
6023;SDS011;3040;42.654;23.296;2024-03-23T10:15:38;15.00;;;12.30;;
6023;SDS011;3040;42.654;23.296;2024-03-23T10:18:04;19.70;;;12.80;;
6023;SDS011;3040;42.654;23.296;2024-03-23T10:20:45;8.90;;;8.10;;
6023;SDS011;3040;42.654;23.296;2024-03-23T10:23:17;9.47;;;8.83;;
6023;SDS011;3040;42.654;23.296;2024-03-23T10:25:44;9.73;;;9.00;;
6023;SDS011;3040;42.654;23.296;2024-03-23T10:28:10;9.87;;;9.07;;
6023;SDS011;3040;42.654;23.296;2024-03-23T10:30:37;9.27;;;8.23;;
6023;SDS011;3040;42.654;23.296;2024-03-23T10:33:06;11.60;;;8.67;;
6023;SDS011;3040;42.654;23.296;2024-03-23T10:35:34;9.70;;;8.67;;
6023;SDS011;3040;42.654;23.296;2024-03-23T10:38:00;8.57;;;7.87;;
6023;SDS011;3040;42.654;23.296;2024-03-23T10:40:29;9.80;;;8.83;;
6023;SDS011;3040;42.654;23.296;2024-03-23T10:42:55;8.77;;;8.00;;
6023;SDS011;3040;42.654;23.296;2024-03-23T10:45:25;7.63;;;7.07;;
6023;SDS011;3040;42.654;23.296;2024-03-23T10:47:51;12.67;;;8.30;;
6023;SDS011;3040;42.654;23.296;2024-03-23T10:50:18;11.47;;;7.97;;
6023;SDS011;3040;42.654;23.296;2024-03-23T10:52:45;7.87;;;7.00;;
6023;SDS011;3040;42.654;23.296;2024-03-23T10:55:13;8.43;;;7.83;;
6023;SDS011;3040;42.654;23.296;2024-03-23T10:57:44;9.00;;;8.30;;
6023;SDS011;3040;42.654;23.296;2024-03-23T11:00:14;7.50;;;7.00;;
6023;SDS011;3040;42.654;23.296;2024-03-23T11:02:41;13.40;;;7.77;;
6023;SDS011;3040;42.654;23.296;2024-03-23T11:07:54;11.27;;;6.77;;
6023;SDS011;3040;42.654;23.296;2024-03-23T11:10:25;7.90;;;6.90;;
6023;SDS011;3040;42.654;23.296;2024-03-23T11:12:52;7.77;;;7.10;;
6023;SDS011;3040;42.654;23.296;2024-03-23T11:15:19;8.40;;;7.10;;
6023;SDS011;3040;42.654;23.296;2024-03-23T11:20:33;7.37;;;6.80;;
6023;SDS011;3040;42.654;23.296;2024-03-23T11:23:00;7.50;;;6.87;;
6023;SDS011;3040;42.654;23.296;2024-03-23T11:25:27;7.63;;;6.73;;
6023;SDS011;3040;42.654;23.296;2024-03-23T11:27:55;7.10;;;6.70;;
6023;SDS011;3040;42.654;23.296;2024-03-23T11:30:23;7.27;;;6.67;;
6023;SDS011;3040;42.654;23.296;2024-03-23T11:32:50;6.77;;;6.23;;
6023;SDS011;3040;42.654;23.296;2024-03-23T11:35:25;7.43;;;6.87;;
6023;SDS011;3040;42.654;23.296;2024-03-23T11:38:04;11.37;;;6.63;;
6023;SDS011;3040;42.654;23.296;2024-03-23T11:40:32;8.67;;;7.50;;
6023;SDS011;3040;42.654;23.296;2024-03-23T11:43:00;8.70;;;7.00;;
6023;SDS011;3040;42.654;23.296;2024-03-23T11:45:35;7.13;;;6.63;;
6023;SDS011;3040;42.654;23.296;2024-03-23T11:48:02;10.17;;;7.07;;
6023;SDS011;3040;42.654;23.296;2024-03-23T11:50:29;9.97;;;7.57;;
6023;SDS011;3040;42.654;23.296;2024-03-23T11:53:06;11.50;;;8.10;;
6023;SDS011;3040;42.654;23.296;2024-03-23T11:55:38;11.63;;;7.07;;
6023;SDS011;3040;42.654;23.296;2024-03-23T11:58:06;7.83;;;7.03;;
6023;SDS011;3040;42.654;23.296;2024-03-23T12:00:33;7.70;;;6.83;;
6023;SDS011;3040;42.654;23.296;2024-03-23T12:03:00;7.57;;;5.80;;
6023;SDS011;3040;42.654;23.296;2024-03-23T12:05:27;7.13;;;6.17;;
6023;SDS011;3040;42.654;23.296;2024-03-23T12:07:53;6.50;;;5.93;;
6023;SDS011;3040;42.654;23.296;2024-03-23T12:10:20;7.17;;;6.67;;
6023;SDS011;3040;42.654;23.296;2024-03-23T12:12:46;6.70;;;6.20;;
6023;SDS011;3040;42.654;23.296;2024-03-23T12:15:14;6.37;;;5.87;;
6023;SDS011;3040;42.654;23.296;2024-03-23T12:17:40;3.17;;;2.97;;
6023;SDS011;3040;42.654;23.296;2024-03-23T12:20:07;4.43;;;4.23;;
6023;SDS011;3040;42.654;23.296;2024-03-23T12:22:33;4.80;;;4.43;;
6023;SDS011;3040;42.654;23.296;2024-03-23T12:25:00;9.43;;;4.93;;
6023;SDS011;3040;42.654;23.296;2024-03-23T12:27:27;3.13;;;1.83;;
6023;SDS011;3040;42.654;23.296;2024-03-23T12:29:54;8.37;;;2.23;;
6023;SDS011;3040;42.654;23.296;2024-03-23T12:32:21;1.90;;;1.50;;
6023;SDS011;3040;42.654;23.296;2024-03-23T12:34:48;3.70;;;1.70;;
6023;SDS011;3040;42.654;23.296;2024-03-23T12:37:14;1.23;;;1.23;;
6023;SDS011;3040;42.654;23.296;2024-03-23T12:39:42;2.63;;;1.93;;
6023;SDS011;3040;42.654;23.296;2024-03-23T12:42:08;1.60;;;1.50;;
6023;SDS011;3040;42.654;23.296;2024-03-23T12:44:34;1.90;;;1.80;;
6023;SDS011;3040;42.654;23.296;2024-03-23T12:47:00;4.50;;;1.70;;
6023;SDS011;3040;42.654;23.296;2024-03-23T12:49:28;2.40;;;1.50;;
6023;SDS011;3040;42.654;23.296;2024-03-23T12:51:55;2.13;;;1.50;;
6023;SDS011;3040;42.654;23.296;2024-03-23T12:54:22;1.90;;;1.80;;
6023;SDS011;3040;42.654;23.296;2024-03-23T12:56:48;1.97;;;1.83;;
6023;SDS011;3040;42.654;23.296;2024-03-23T12:59:15;2.10;;;2.00;;
6023;SDS011;3040;42.654;23.296;2024-03-23T13:01:41;1.90;;;1.80;;
6023;SDS011;3040;42.654;23.296;2024-03-23T13:04:08;3.47;;;1.40;;
6023;SDS011;3040;42.654;23.296;2024-03-23T13:06:37;4.53;;;1.37;;
6023;SDS011;3040;42.654;23.296;2024-03-23T13:09:03;1.80;;;1.20;;
6023;SDS011;3040;42.654;23.296;2024-03-23T13:11:30;1.33;;;1.00;;
6023;SDS011;3040;42.654;23.296;2024-03-23T13:13:56;1.23;;;1.00;;
6023;SDS011;3040;42.654;23.296;2024-03-23T13:16:23;0.90;;;0.90;;
6023;SDS011;3040;42.654;23.296;2024-03-23T13:18:49;1.90;;;1.10;;
6023;SDS011;3040;42.654;23.296;2024-03-23T13:21:16;1.10;;;0.70;;
6023;SDS011;3040;42.654;23.296;2024-03-23T13:23:43;1.10;;;1.10;;
6023;SDS011;3040;42.654;23.296;2024-03-23T13:26:13;1.10;;;1.00;;
6023;SDS011;3040;42.654;23.296;2024-03-23T13:28:39;1.87;;;1.10;;
6023;SDS011;3040;42.654;23.296;2024-03-23T13:31:06;1.27;;;1.07;;
6023;SDS011;3040;42.654;23.296;2024-03-23T13:33:33;2.97;;;1.70;;
6023;SDS011;3040;42.654;23.296;2024-03-23T13:36:00;1.53;;;1.17;;
6023;SDS011;3040;42.654;23.296;2024-03-23T13:38:27;1.20;;;1.00;;
6023;SDS011;3040;42.654;23.296;2024-03-23T13:40:55;2.00;;;1.33;;
6023;SDS011;3040;42.654;23.296;2024-03-23T13:43:21;9.47;;;1.57;;
6023;SDS011;3040;42.654;23.296;2024-03-23T13:45:50;1.20;;;1.20;;
6023;SDS011;3040;42.654;23.296;2024-03-23T13:48:19;7.00;;;1.37;;
6023;SDS011;3040;42.654;23.296;2024-03-23T13:50:46;1.60;;;1.47;;
6023;SDS011;3040;42.654;23.296;2024-03-23T13:53:13;6.93;;;1.57;;
6023;SDS011;3040;42.654;23.296;2024-03-23T13:55:45;1.30;;;1.20;;
6023;SDS011;3040;42.654;23.296;2024-03-23T13:58:13;1.60;;;1.50;;
6023;SDS011;3040;42.654;23.296;2024-03-23T14:00:40;1.43;;;1.40;;
6023;SDS011;3040;42.654;23.296;2024-03-23T14:03:07;2.27;;;1.37;;
6023;SDS011;3040;42.654;23.296;2024-03-23T14:05:34;1.10;;;1.00;;
6023;SDS011;3040;42.654;23.296;2024-03-23T14:08:00;2.17;;;1.50;;
6023;SDS011;3040;42.654;23.296;2024-03-23T14:10:26;1.23;;;1.13;;
6023;SDS011;3040;42.654;23.296;2024-03-23T14:12:52;2.23;;;1.50;;
6023;SDS011;3040;42.654;23.296;2024-03-23T14:15:21;2.17;;;1.40;;
6023;SDS011;3040;42.654;23.296;2024-03-23T14:17:48;1.33;;;1.30;;
6023;SDS011;3040;42.654;23.296;2024-03-23T14:20:14;1.50;;;1.40;;
6023;SDS011;3040;42.654;23.296;2024-03-23T14:22:41;2.63;;;1.40;;
6023;SDS011;3040;42.654;23.296;2024-03-23T14:25:07;1.37;;;1.37;;
6023;SDS011;3040;42.654;23.296;2024-03-23T14:27:34;1.10;;;1.10;;
6023;SDS011;3040;42.654;23.296;2024-03-23T14:30:02;1.43;;;1.00;;
6023;SDS011;3040;42.654;23.296;2024-03-23T14:32:31;1.13;;;1.13;;
6023;SDS011;3040;42.654;23.296;2024-03-23T14:34:59;1.43;;;1.33;;
6023;SDS011;3040;42.654;23.296;2024-03-23T14:37:26;2.30;;;1.30;;
6023;SDS011;3040;42.654;23.296;2024-03-23T14:39:52;2.63;;;1.70;;
6023;SDS011;3040;42.654;23.296;2024-03-23T14:42:19;2.50;;;2.30;;
6023;SDS011;3040;42.654;23.296;2024-03-23T14:44:45;2.40;;;2.20;;
6023;SDS011;3040;42.654;23.296;2024-03-23T14:47:12;2.00;;;1.90;;
6023;SDS011;3040;42.654;23.296;2024-03-23T14:49:39;2.43;;;2.03;;
6023;SDS011;3040;42.654;23.296;2024-03-23T14:52:05;1.90;;;1.80;;
6023;SDS011;3040;42.654;23.296;2024-03-23T14:54:32;2.77;;;2.20;;
6023;SDS011;3040;42.654;23.296;2024-03-23T14:57:00;2.13;;;2.03;;
6023;SDS011;3040;42.654;23.296;2024-03-23T14:59:26;4.13;;;2.47;;
6023;SDS011;3040;42.654;23.296;2024-03-23T15:01:52;2.13;;;2.03;;
6023;SDS011;3040;42.654;23.296;2024-03-23T15:04:18;2.40;;;2.30;;
6023;SDS011;3040;42.654;23.296;2024-03-23T15:06:46;2.40;;;2.30;;
6023;SDS011;3040;42.654;23.296;2024-03-23T15:09:14;2.23;;;2.13;;
6023;SDS011;3040;42.654;23.296;2024-03-23T15:11:41;2.20;;;2.00;;
6023;SDS011;3040;42.654;23.296;2024-03-23T15:14:07;2.63;;;2.53;;
6023;SDS011;3040;42.654;23.296;2024-03-23T15:16:34;2.67;;;2.47;;
6023;SDS011;3040;42.654;23.296;2024-03-23T15:18:59;2.50;;;2.40;;
6023;SDS011;3040;42.654;23.296;2024-03-23T15:21:26;2.57;;;2.47;;
6023;SDS011;3040;42.654;23.296;2024-03-23T15:23:54;2.37;;;2.27;;
6023;SDS011;3040;42.654;23.296;2024-03-23T15:26:21;6.23;;;2.30;;
6023;SDS011;3040;42.654;23.296;2024-03-23T15:28:48;2.83;;;2.40;;
6023;SDS011;3040;42.654;23.296;2024-03-23T15:31:29;3.00;;;2.43;;
6023;SDS011;3040;42.654;23.296;2024-03-23T15:33:56;2.23;;;2.13;;
6023;SDS011;3040;42.654;23.296;2024-03-23T15:36:21;1.90;;;1.80;;
6023;SDS011;3040;42.654;23.296;2024-03-23T15:38:48;4.20;;;2.30;;
6023;SDS011;3040;42.654;23.296;2024-03-23T15:41:15;11.07;;;2.90;;
6023;SDS011;3040;42.654;23.296;2024-03-23T15:43:42;3.40;;;2.10;;
6023;SDS011;3040;42.654;23.296;2024-03-23T15:46:08;3.07;;;2.00;;